createdAt,value
2022-10-06T00:07:53.223Z,1.9
2022-10-06T00:19:53.348Z,2.0
2022-10-06T00:31:53.280Z,2.0
2022-10-06T00:43:53.334Z,2.0
2022-10-06T00:55:53.388Z,2.2
2022-10-06T01:07:53.389Z,2.2
2022-10-06T01:19:53.284Z,1.3
2022-10-06T01:31:53.200Z,1.3
2022-10-06T01:43:53.262Z,1.3
2022-10-06T01:55:53.168Z,2.5
2022-10-06T02:07:53.161Z,2.5
2022-10-06T02:19:53.276Z,1.2
2022-10-06T02:31:53.166Z,1.2
2022-10-06T02:43:53.241Z,1.2
2022-10-06T02:55:53.159Z,1.3
2022-10-06T03:07:53.158Z,1.3
2022-10-06T03:19:53.273Z,1.1
2022-10-06T03:31:53.169Z,1.1
2022-10-06T03:43:53.274Z,1.1
2022-10-06T03:55:53.251Z,2.9
2022-10-06T04:07:53.195Z,2.9
2022-10-06T04:19:53.164Z,1.2
2022-10-06T04:31:53.223Z,1.2
2022-10-06T04:43:53.247Z,1.2
2022-10-06T04:55:53.162Z,2.0
2022-10-06T05:07:53.160Z,2.0
2022-10-06T05:19:53.161Z,2.2
2022-10-06T05:31:53.210Z,2.2
2022-10-06T05:43:53.230Z,2.2
2022-10-06T05:55:53.512Z,3.3
2022-10-06T06:07:53.437Z,3.3
2022-10-06T06:19:53.159Z,3.4
2022-10-06T06:31:53.233Z,3.4
2022-10-06T06:43:53.364Z,3.4
2022-10-06T06:55:53.168Z,4.0
2022-10-06T07:07:53.163Z,4.0
2022-10-06T07:19:53.166Z,4.6
2022-10-06T07:31:53.285Z,4.6
2022-10-06T07:43:53.270Z,4.6
2022-10-06T07:55:53.158Z,4.3
2022-10-06T08:07:53.376Z,4.3
2022-10-06T08:19:53.158Z,3.2
2022-10-06T08:31:53.276Z,3.2
2022-10-06T08:43:53.240Z,3.2
2022-10-06T08:55:53.233Z,2.3
2022-10-06T09:07:53.276Z,2.3
2022-10-06T09:19:53.524Z,2.0
2022-10-06T09:31:53.285Z,2.0
2022-10-06T09:43:53.166Z,2.0
2022-10-06T09:55:53.277Z,1.8
2022-10-06T10:07:53.161Z,1.8
2022-10-06T10:19:53.240Z,2.2
2022-10-06T10:31:53.243Z,2.2
2022-10-06T10:43:53.278Z,2.2
2022-10-06T10:55:53.240Z,1.1
2022-10-06T11:07:53.296Z,1.1
2022-10-06T11:19:53.226Z,1.3
2022-10-06T11:31:53.307Z,1.3
2022-10-06T11:43:53.267Z,1.3
2022-10-06T11:55:53.159Z,1.7
2022-10-06T12:07:53.268Z,1.7
2022-10-06T12:19:53.241Z,1.1
2022-10-06T12:31:53.280Z,1.1
2022-10-06T12:43:53.148Z,1.1
2022-10-06T12:55:53.268Z,1.2
2022-10-06T13:07:53.278Z,1.2
2022-10-06T13:19:53.200Z,0.8
2022-10-06T13:31:53.467Z,0.8
2022-10-06T13:43:53.273Z,0.8
2022-10-06T13:55:53.282Z,1.0
2022-10-06T14:07:53.154Z,1.0
2022-10-06T14:19:53.238Z,1.2
2022-10-06T14:31:53.237Z,1.2
2022-10-06T14:43:53.180Z,1.2
2022-10-06T14:55:53.250Z,0.7
2022-10-06T15:07:53.157Z,0.7
2022-10-06T15:19:53.159Z,2.2
2022-10-06T15:31:53.224Z,2.2
2022-10-06T15:43:53.170Z,2.2
2022-10-06T15:55:53.161Z,2.7
2022-10-06T16:07:53.249Z,2.7
2022-10-06T16:19:53.173Z,2.4
2022-10-06T16:31:53.211Z,2.4
2022-10-06T16:43:53.159Z,2.4
2022-10-06T16:55:55.191Z,5.5
2022-10-06T17:07:58.336Z,5.5
2022-10-06T17:19:53.164Z,4.2
2022-10-06T17:31:53.418Z,4.2
2022-10-06T17:43:53.161Z,4.2
2022-10-06T17:55:53.158Z,4.5
2022-10-06T18:07:53.163Z,4.5
2022-10-06T18:19:53.158Z,2.2
2022-10-06T18:31:53.222Z,2.2
2022-10-06T18:43:53.159Z,2.2
2022-10-06T18:55:53.159Z,1.1
2022-10-06T19:07:53.168Z,1.1
2022-10-06T19:19:53.262Z,1.4
2022-10-06T19:31:53.157Z,1.4
2022-10-06T19:43:53.163Z,1.4
2022-10-06T19:55:53.156Z,1.7
2022-10-06T20:07:53.159Z,1.7
2022-10-06T20:19:57.422Z,1.2
2022-10-06T20:31:53.169Z,1.2
2022-10-06T20:43:53.235Z,1.2
2022-10-06T20:55:53.165Z,1.8
2022-10-06T21:07:53.248Z,1.8
2022-10-06T21:19:53.243Z,1.2
2022-10-06T21:31:53.241Z,1.2
2022-10-06T21:43:53.243Z,1.2
2022-10-06T21:55:53.244Z,1.5
2022-10-06T22:07:53.239Z,1.5
2022-10-06T22:19:53.237Z,1.3
2022-10-06T22:31:53.457Z,1.3
2022-10-06T22:43:53.386Z,1.3
2022-10-06T22:55:53.243Z,0.9
2022-10-06T23:07:53.241Z,0.9
2022-10-06T23:19:53.243Z,1.0
2022-10-06T23:31:53.279Z,1.0
2022-10-06T23:43:53.243Z,1.0
2022-10-06T23:55:53.247Z,0.8
